Decoded Metar for KCNK (CONCORDIA in KS, USA) (IATA:CNK) | Meteo·Mobile Aviation Weather
aviador You're here:

KCNK Decoded Metar

CONCORDIA in KS, USA
Report Time2018-12-14 22:55:00
UTC Time2018-12-14 23:54:44
Flight Rules vfr VFR
WindCalm
Visibility9999 m
Phenomena:N/A
Clouds:N/A
Expected CloudBase > 3,600 ft AGL from Temp-Dew spread
CeilingNone
Temp06°C (ISA -6)
Dew Point-3°C (53% RH)
AAT3.6°C
QNH1024 hPa
Density Alt436 ft
Elevation1,467 ft
Report Wrong Elevation
Raw Report
KCNK 142255Z AUTO 00000KT 10SM CLR 06/M03 A3024 RMK AO2 SLP252
T00611033=

Extra information for KCNK:More info

Metar Taf Metar & Taf Last 4 Metars F.Rules Stats Wind Profile Meteogram Temp Stats Airport Information Weather charts Add Link Nearby VenuesMetar ALERT Operation Metar Decoded Social comments

AIRNAV info for KCNK